createdAt,value
2022-10-09T00:00:50.096Z,102023.06
2022-10-09T00:03:17.497Z,102028.81
2022-10-09T00:05:45.163Z,102031.19
2022-10-09T00:08:11.826Z,102034.22
2022-10-09T00:10:44.903Z,102028.13
2022-10-09T00:13:12.762Z,102043.34
2022-10-09T00:15:41.106Z,102035.22
2022-10-09T00:18:09.341Z,102040.13
2022-10-09T00:20:38.062Z,102045.56
2022-10-09T00:23:04.674Z,102041.00
2022-10-09T00:25:31.462Z,102041.00
2022-10-09T00:27:59.002Z,102039.13
2022-10-09T00:30:26.451Z,102039.81
2022-10-09T00:32:53.366Z,102047.94
2022-10-09T00:35:20.915Z,102052.84
2022-10-09T00:37:48.664Z,102049.78
2022-10-09T00:40:16.715Z,102052.50
2022-10-09T00:42:45.690Z,102058.59
2022-10-09T00:45:21.464Z,102062.69
2022-10-09T00:47:50.704Z,102068.59
2022-10-09T00:50:22.674Z,102056.59
2022-10-09T00:52:54.217Z,102065.22
2022-10-09T00:55:22.888Z,102061.84
2022-10-09T00:57:51.074Z,102070.97
2022-10-09T01:00:17.926Z,102073.69
2022-10-09T01:02:44.618Z,102063.88
2022-10-09T01:05:13.099Z,102066.25
2022-10-09T01:07:42.308Z,102066.06
2022-10-09T01:10:32.493Z,102062.00
2022-10-09T01:13:11.661Z,102071.50
2022-10-09T01:16:03.969Z,102077.25
2022-10-09T01:18:53.656Z,102080.97
2022-10-09T01:21:25.313Z,102077.41
2022-10-09T01:23:57.668Z,102072.16
2022-10-09T01:26:42.958Z,102083.66
2022-10-09T01:29:11.485Z,102080.44
2022-10-09T01:31:42.523Z,102081.63
2022-10-09T01:34:13.141Z,102080.28
2022-10-09T01:36:41.855Z,102090.09
2022-10-09T01:39:13.441Z,102083.66
2022-10-09T01:41:40.078Z,102090.94
2022-10-09T01:44:28.395Z,102091.13
2022-10-09T01:46:55.832Z,102088.41
2022-10-09T01:49:43.955Z,102092.97
2022-10-09T01:52:25.670Z,102096.88
2022-10-09T01:55:10.792Z,102096.16
2022-10-09T01:57:56.181Z,102099.56
2022-10-09T02:00:23.025Z,102094.16
2022-10-09T02:02:52.538Z,102095.47
2022-10-09T02:05:23.393Z,102098.56
2022-10-09T02:07:50.096Z,102105.84
2022-10-09T02:10:18.625Z,102105.00
2022-10-09T02:12:54.660Z,102106.50
2022-10-09T02:15:24.505Z,102112.09
2022-10-09T02:17:53.624Z,102114.97
2022-10-09T02:20:33.066Z,102117.69
2022-10-09T02:23:02.703Z,102106.69
2022-10-09T02:25:29.666Z,102109.56
2022-10-09T02:27:56.854Z,102110.41
2022-10-09T02:30:26.917Z,102112.41
2022-10-09T02:32:54.475Z,102115.28
2022-10-09T02:35:21.764Z,102115.44
2022-10-09T02:37:49.177Z,102114.59
2022-10-09T02:40:15.936Z,102120.84
2022-10-09T02:42:42.521Z,102114.75
2022-10-09T02:45:09.712Z,102125.59
2022-10-09T02:47:36.289Z,102119.50
2022-10-09T02:50:02.895Z,102120.19
2022-10-09T02:52:29.459Z,102128.28
2022-10-09T02:54:56.085Z,102118.94
2022-10-09T02:57:22.632Z,102128.78
2022-10-09T02:59:49.213Z,102122.84
2022-10-09T03:02:15.843Z,102128.63
2022-10-09T03:04:42.469Z,102133.19
2022-10-09T03:07:09.008Z,102130.66
2022-10-09T03:09:35.551Z,102129.09
2022-10-09T03:12:02.104Z,102134.66
2022-10-09T03:14:28.689Z,102132.28
2022-10-09T03:16:55.235Z,102136.88
2022-10-09T03:19:21.784Z,102142.28
2022-10-09T03:21:48.330Z,102145.16
2022-10-09T03:24:14.906Z,102143.28
2022-10-09T03:26:41.478Z,102145.44
2022-10-09T03:29:08.050Z,102147.00
2022-10-09T03:34:21.193Z,102158.00
2022-10-09T03:36:47.798Z,102165.41
2022-10-09T03:39:14.453Z,102169.81
2022-10-09T03:41:41.001Z,102162.69
2022-10-09T03:44:07.569Z,102160.00
2022-10-09T03:46:34.296Z,102162.34
2022-10-09T03:49:00.898Z,102164.88
2022-10-09T03:51:27.505Z,102170.81
2022-10-09T03:53:54.074Z,102174.53
2022-10-09T03:56:20.641Z,102179.09
2022-10-09T03:58:47.196Z,102176.22
2022-10-09T04:01:13.773Z,102169.28
2022-10-09T04:03:40.375Z,102176.41
2022-10-09T04:06:07.007Z,102174.00
2022-10-09T04:08:33.581Z,102179.44
2022-10-09T04:11:00.522Z,102168.59
2022-10-09T04:13:27.627Z,102178.56
2022-10-09T04:15:55.488Z,102170.47
2022-10-09T04:18:22.492Z,102168.94
2022-10-09T04:20:51.152Z,102176.88
2022-10-09T04:23:18.925Z,102172.66
2022-10-09T04:25:45.882Z,102177.22
2022-10-09T04:28:13.014Z,102178.91
2022-10-09T04:30:39.623Z,102175.50
2022-10-09T04:33:11.835Z,102184.63
2022-10-09T04:35:49.429Z,102181.06
2022-10-09T04:38:15.985Z,102188.34
2022-10-09T04:40:42.540Z,102186.63
2022-10-09T04:43:09.286Z,102191.75
2022-10-09T04:45:40.152Z,102193.59
2022-10-09T04:48:06.799Z,102193.75
2022-10-09T04:50:33.337Z,102189.19
2022-10-09T04:52:59.901Z,102191.38
2022-10-09T04:55:26.453Z,102199.16
2022-10-09T04:57:53.257Z,102202.03
2022-10-09T05:00:19.851Z,102196.63
2022-10-09T05:02:46.700Z,102192.72
2022-10-09T05:05:13.740Z,102195.44
2022-10-09T05:07:40.308Z,102200.84
2022-10-09T05:10:07.382Z,102207.44
2022-10-09T05:12:33.959Z,102209.97
2022-10-09T05:15:00.578Z,102211.84
2022-10-09T05:17:27.616Z,102212.84
2022-10-09T05:19:54.312Z,102219.09
2022-10-09T05:22:20.867Z,102219.28
2022-10-09T05:24:47.444Z,102221.13
2022-10-09T05:27:14.011Z,102219.28
2022-10-09T05:29:40.553Z,102227.53
2022-10-09T05:32:07.448Z,102230.94
2022-10-09T05:34:34.718Z,102229.09
2022-10-09T05:37:01.304Z,102236.50
2022-10-09T05:39:27.879Z,102231.09
2022-10-09T05:41:54.438Z,102224.84
2022-10-09T05:44:21.231Z,102229.09
2022-10-09T05:46:47.832Z,102239.06
2022-10-09T05:49:14.410Z,102241.06
2022-10-09T05:51:42.908Z,102243.78
2022-10-09T05:54:14.361Z,102250.72
2022-10-09T05:56:42.427Z,102253.28
2022-10-09T05:59:11.496Z,102257.84
2022-10-09T06:01:40.144Z,102256.31
2022-10-09T06:04:11.034Z,102262.41
2022-10-09T06:06:39.227Z,102274.91
2022-10-09T06:09:07.546Z,102265.28
2022-10-09T06:11:36.800Z,102270.34
2022-10-09T06:14:05.479Z,102273.06
2022-10-09T06:16:35.106Z,102274.06
2022-10-09T06:19:02.425Z,102280.34
2022-10-09T06:21:29.240Z,102285.59
2022-10-09T06:24:00.868Z,102288.28
2022-10-09T06:26:31.692Z,102287.31
2022-10-09T06:29:00.762Z,102284.75
2022-10-09T06:31:30.043Z,102289.84
2022-10-09T06:33:59.786Z,102285.44
2022-10-09T06:36:28.603Z,102288.16
2022-10-09T06:38:55.822Z,102293.69
2022-10-09T06:41:24.856Z,102299.88
2022-10-09T06:43:57.030Z,102310.88
2022-10-09T06:46:27.303Z,102311.44
2022-10-09T06:48:54.017Z,102313.50
2022-10-09T06:51:23.433Z,102314.47
2022-10-09T06:53:52.775Z,102318.81
2022-10-09T06:56:21.024Z,102310.75
2022-10-09T06:58:48.485Z,102322.13
2022-10-09T07:01:24.671Z,102320.25
2022-10-09T07:03:57.051Z,102323.28
2022-10-09T07:06:27.108Z,102326.00
2022-10-09T07:08:57.168Z,102320.94
2022-10-09T07:11:35.137Z,102332.63
2022-10-09T07:14:04.356Z,102330.06
2022-10-09T07:16:34.242Z,102325.66
2022-10-09T07:19:07.310Z,102334.63
2022-10-09T07:21:35.475Z,102334.63
2022-10-09T07:24:03.316Z,102340.22
2022-10-09T07:26:33.103Z,102342.75
2022-10-09T07:29:00.257Z,102339.22
2022-10-09T07:31:27.166Z,102340.75
2022-10-09T07:33:55.421Z,102344.13
2022-10-09T07:36:22.496Z,102340.13
2022-10-09T07:38:51.400Z,102344.94
2022-10-09T07:41:18.840Z,102344.13
2022-10-09T07:43:45.744Z,102352.47
2022-10-09T07:46:15.466Z,102359.88
2022-10-09T07:48:42.327Z,102352.47
2022-10-09T07:51:18.207Z,102350.97
2022-10-09T07:53:45.063Z,102357.97
2022-10-09T07:56:20.694Z,102355.63
2022-10-09T07:58:54.988Z,102354.63
2022-10-09T08:01:22.500Z,102352.84
2022-10-09T08:03:50.332Z,102354.69
2022-10-09T08:06:18.555Z,102355.03
2022-10-09T08:08:45.817Z,102360.72
2022-10-09T08:11:16.860Z,102367.03
2022-10-09T08:13:44.933Z,102366.56
2022-10-09T08:16:11.951Z,102363.56
2022-10-09T08:18:38.633Z,102364.91
2022-10-09T08:21:13.699Z,102366.78
2022-10-09T08:23:40.883Z,102369.84
2022-10-09T08:26:19.406Z,102365.59
2022-10-09T08:29:03.482Z,102368.28
2022-10-09T08:31:32.070Z,102372.63
2022-10-09T08:34:01.787Z,102374.75
2022-10-09T08:36:29.452Z,102372.63
2022-10-09T08:38:56.098Z,102364.09
2022-10-09T08:41:38.869Z,102374.59
2022-10-09T08:44:28.066Z,102372.53
2022-10-09T08:47:14.845Z,102372.41
2022-10-09T08:49:57.068Z,102364.72
2022-10-09T08:52:23.682Z,102369.78
2022-10-09T08:54:52.851Z,102371.50
2022-10-09T08:57:21.476Z,102368.03
2022-10-09T08:59:48.332Z,102369.81
2022-10-09T09:02:37.425Z,102372.03
2022-10-09T09:05:48.651Z,102371.72
2022-10-09T09:08:34.007Z,102381.19
2022-10-09T09:11:21.695Z,102377.34
2022-10-09T09:13:48.479Z,102375.19
2022-10-09T09:16:35.166Z,102372.84
2022-10-09T09:19:39.410Z,102367.44
2022-10-09T09:22:12.036Z,102375.28
2022-10-09T09:24:44.412Z,102370.06
2022-10-09T09:27:19.290Z,102370.13
2022-10-09T09:29:54.821Z,102368.69
2022-10-09T09:32:23.604Z,102369.41
2022-10-09T09:34:50.885Z,102377.69
2022-10-09T09:37:17.477Z,102374.50
2022-10-09T09:42:31.111Z,102363.50
2022-10-09T09:45:07.106Z,102359.53
2022-10-09T09:47:43.156Z,102353.94
2022-10-09T09:50:23.449Z,102361.91
2022-10-09T09:52:56.880Z,102358.59
2022-10-09T09:55:30.080Z,102356.06
2022-10-09T09:58:08.109Z,102356.44
2022-10-09T10:00:35.469Z,102347.53
2022-10-09T10:03:21.279Z,102351.59
2022-10-09T10:05:47.903Z,102349.09
2022-10-09T10:08:15.831Z,102350.91
2022-10-09T10:10:47.943Z,102340.25
2022-10-09T10:13:21.171Z,102340.38
2022-10-09T10:15:50.885Z,102341.47
2022-10-09T10:18:19.337Z,102334.66
2022-10-09T10:20:49.633Z,102337.78
2022-10-09T10:23:39.541Z,102336.09
2022-10-09T10:26:15.408Z,102334.94
2022-10-09T10:32:34.809Z,102331.41
2022-10-09T10:35:14.870Z,102325.53
2022-10-09T10:38:06.422Z,102331.59
2022-10-09T10:40:47.022Z,102326.94
2022-10-09T10:43:44.515Z,102326.41
2022-10-09T10:46:10.991Z,102321.25
2022-10-09T10:48:42.800Z,102318.56
2022-10-09T10:51:39.470Z,102318.56
2022-10-09T10:54:24.690Z,102318.72
2022-10-09T10:57:00.781Z,102312.13
2022-10-09T11:00:04.044Z,102307.72
2022-10-09T11:02:53.498Z,102310.63
2022-10-09T11:05:38.182Z,102309.25
2022-10-09T11:08:14.009Z,102304.47
2022-10-09T11:10:58.805Z,102304.66
2022-10-09T11:13:33.755Z,102299.19
2022-10-09T11:16:29.168Z,102299.38
2022-10-09T11:19:04.482Z,102297.34
2022-10-09T11:21:43.683Z,102298.16
2022-10-09T11:24:37.262Z,102300.38
2022-10-09T11:27:23.894Z,102292.44
2022-10-09T11:30:09.283Z,102284.63
2022-10-09T11:32:53.189Z,102283.75
2022-10-09T11:35:26.015Z,102281.72
2022-10-09T11:38:04.773Z,102275.97
2022-10-09T11:40:42.988Z,102281.91
2022-10-09T11:43:27.354Z,102277.47
2022-10-09T11:46:15.645Z,102272.47
2022-10-09T11:49:06.808Z,102263.94
2022-10-09T11:51:49.754Z,102262.75
2022-10-09T11:54:22.282Z,102260.84
2022-10-09T11:57:00.083Z,102259.88
2022-10-09T11:59:31.110Z,102249.31
2022-10-09T12:02:00.300Z,102246.25
2022-10-09T12:10:41.993Z,102238.16
2022-10-09T12:13:29.679Z,102231.03
2022-10-09T12:15:58.418Z,102231.06
2022-10-09T12:18:29.276Z,102230.72
2022-10-09T12:20:58.061Z,102221.53
2022-10-09T12:23:30.185Z,102215.91
2022-10-09T12:25:57.690Z,102224.94
2022-10-09T12:28:24.222Z,102219.50
2022-10-09T12:30:52.026Z,102211.50
2022-10-09T12:33:36.109Z,102211.16
2022-10-09T12:36:22.578Z,102204.16
2022-10-09T12:38:49.194Z,102199.38
2022-10-09T12:41:22.418Z,102199.66
2022-10-09T12:43:52.111Z,102194.38
2022-10-09T12:46:37.202Z,102193.53
2022-10-09T12:49:16.027Z,102190.56
2022-10-09T12:51:56.211Z,102193.63
2022-10-09T12:54:25.164Z,102197.50
2022-10-09T12:56:57.318Z,102199.13
2022-10-09T12:59:26.280Z,102196.84
2022-10-09T13:01:57.826Z,102193.22
2022-10-09T13:04:33.522Z,102194.63
2022-10-09T13:07:05.641Z,102188.53
2022-10-09T13:09:39.559Z,102179.00
2022-10-09T13:12:09.014Z,102184.78
2022-10-09T13:14:52.811Z,102182.31
2022-10-09T13:17:24.973Z,102191.03
2022-10-09T13:19:54.350Z,102173.38
2022-10-09T13:22:26.186Z,102182.31
2022-10-09T13:24:55.860Z,102184.16
2022-10-09T13:27:29.404Z,102176.38
2022-10-09T13:29:56.777Z,102179.81
2022-10-09T13:32:24.301Z,102167.59
2022-10-09T13:34:55.030Z,102163.88
2022-10-09T13:37:23.660Z,102168.88
2022-10-09T13:39:58.371Z,102161.97
2022-10-09T13:42:29.380Z,102157.53
2022-10-09T13:44:56.090Z,102156.03
2022-10-09T13:47:24.598Z,102161.69
2022-10-09T13:49:51.993Z,102160.06
2022-10-09T13:52:18.673Z,102158.31
2022-10-09T13:54:45.309Z,102163.91
2022-10-09T13:57:12.136Z,102155.13
2022-10-09T13:59:38.809Z,102150.81
2022-10-09T14:02:05.428Z,102153.44
2022-10-09T14:04:32.067Z,102145.91
2022-10-09T14:06:58.585Z,102151.56
2022-10-09T14:09:25.148Z,102144.88
2022-10-09T14:11:51.673Z,102144.28
2022-10-09T14:14:18.309Z,102144.25
2022-10-09T14:16:44.847Z,102139.84
2022-10-09T14:24:50.027Z,102140.66
2022-10-09T14:27:16.603Z,102131.75
2022-10-09T14:29:43.159Z,102129.59
2022-10-09T14:32:09.824Z,102134.25
2022-10-09T14:34:36.357Z,102136.16
2022-10-09T14:37:07.348Z,102131.94
2022-10-09T14:39:41.958Z,102130.78
2022-10-09T14:42:08.478Z,102123.19
2022-10-09T14:44:35.044Z,102122.41
2022-10-09T14:47:01.583Z,102119.78
2022-10-09T14:49:28.098Z,102117.81
2022-10-09T14:51:54.641Z,102116.22
2022-10-09T14:54:21.413Z,102111.88
2022-10-09T14:56:47.977Z,102115.81
2022-10-09T14:59:14.547Z,102105.66
2022-10-09T15:01:41.170Z,102108.09
2022-10-09T15:04:07.896Z,102112.31
2022-10-09T15:06:34.666Z,102108.34
2022-10-09T15:09:05.428Z,102096.81
2022-10-09T15:11:34.169Z,102103.13
2022-10-09T15:14:00.735Z,102104.03
2022-10-09T15:16:27.376Z,102099.00
2022-10-09T15:18:55.717Z,102093.94
2022-10-09T15:21:25.318Z,102094.59
2022-10-09T15:23:54.694Z,102094.81
2022-10-09T15:26:21.985Z,102092.09
2022-10-09T15:28:48.603Z,102089.22
2022-10-09T15:31:29.537Z,102088.91
2022-10-09T15:33:57.616Z,102086.88
2022-10-09T15:36:25.123Z,102082.66
2022-10-09T15:38:51.641Z,102084.34
2022-10-09T15:41:27.414Z,102087.22
2022-10-09T15:44:01.464Z,102091.31
2022-10-09T15:46:28.779Z,102088.94
2022-10-09T15:48:55.748Z,102081.50
2022-10-09T15:51:23.162Z,102090.13
2022-10-09T15:53:51.176Z,102085.56
2022-10-09T15:56:24.196Z,102083.84
2022-10-09T15:58:52.174Z,102083.66
2022-10-09T16:01:18.909Z,102080.28
2022-10-09T16:03:46.044Z,102081.47
2022-10-09T16:06:15.252Z,102083.50
2022-10-09T16:08:42.687Z,102091.28
2022-10-09T16:11:11.210Z,102082.81
2022-10-09T16:13:39.938Z,102085.19
2022-10-09T16:16:09.855Z,102079.91
2022-10-09T16:18:36.680Z,102081.78
2022-10-09T16:21:08.554Z,102086.69
2022-10-09T16:23:35.815Z,102079.06
2022-10-09T16:26:04.122Z,102082.13
2022-10-09T16:28:31.201Z,102086.03
2022-10-09T16:30:58.270Z,102076.03
2022-10-09T16:33:24.893Z,102084.50
2022-10-09T16:35:51.735Z,102083.69
2022-10-09T16:38:18.852Z,102085.19
2022-10-09T16:41:03.137Z,102087.72
2022-10-09T16:43:33.809Z,102075.03
2022-10-09T16:46:25.778Z,102084.69
2022-10-09T16:48:53.949Z,102075.22
2022-10-09T16:51:23.421Z,102079.78
2022-10-09T16:53:54.699Z,102075.53
2022-10-09T16:56:24.178Z,102074.69
2022-10-09T16:58:55.500Z,102080.94
2022-10-09T17:01:22.434Z,102076.53
2022-10-09T17:03:49.050Z,102072.81
2022-10-09T17:06:21.138Z,102080.78
2022-10-09T17:08:48.330Z,102072.47
2022-10-09T17:11:16.776Z,102079.44
2022-10-09T17:13:44.304Z,102077.06
2022-10-09T17:16:17.990Z,102082.81
2022-10-09T17:18:47.732Z,102075.19
2022-10-09T17:21:16.825Z,102079.09
2022-10-09T17:23:43.899Z,102078.91
2022-10-09T17:26:13.668Z,102065.88
2022-10-09T17:28:41.664Z,102077.56
2022-10-09T17:31:14.334Z,102075.03
2022-10-09T17:33:43.040Z,102076.34
2022-10-09T17:36:10.272Z,102067.91
2022-10-09T17:38:37.251Z,102069.09
2022-10-09T17:41:08.530Z,102053.66
2022-10-09T17:43:35.263Z,102054.00
2022-10-09T17:46:01.997Z,102055.19
2022-10-09T17:48:29.157Z,102045.38
2022-10-09T17:50:57.844Z,102048.91
2022-10-09T17:53:25.224Z,102054.66
2022-10-09T17:55:56.700Z,102049.22
2022-10-09T17:58:24.544Z,102050.91
2022-10-09T18:00:51.578Z,102052.63
2022-10-09T18:03:18.859Z,102040.63
2022-10-09T18:05:49.280Z,102047.19
2022-10-09T18:08:18.425Z,102046.34
2022-10-09T18:10:45.568Z,102048.06
2022-10-09T18:13:12.409Z,102040.94
2022-10-09T18:15:43.735Z,102041.94
2022-10-09T18:18:11.315Z,102039.25
2022-10-09T18:20:39.552Z,102037.03
2022-10-09T18:23:07.920Z,102029.59
2022-10-09T18:25:35.549Z,102038.41
2022-10-09T18:28:02.154Z,102031.81
2022-10-09T18:30:28.798Z,102031.81
2022-10-09T18:32:55.735Z,102025.53
2022-10-09T18:35:22.620Z,102027.75
2022-10-09T18:37:49.305Z,102024.03
2022-10-09T18:40:15.913Z,102024.03
2022-10-09T18:42:42.659Z,102026.56
2022-10-09T18:45:12.680Z,102019.94
2022-10-09T18:47:39.534Z,102013.03
2022-10-09T18:50:09.155Z,102016.56
2022-10-09T18:52:37.509Z,102020.31
2022-10-09T18:55:06.694Z,102014.03
2022-10-09T18:57:34.936Z,102030.78
2022-10-09T19:00:02.619Z,102019.63
2022-10-09T19:02:29.238Z,102021.13
2022-10-09T19:04:56.087Z,102021.31
2022-10-09T19:07:22.683Z,102018.28
2022-10-09T19:09:53.558Z,102025.53
2022-10-09T19:12:23.079Z,102008.78
2022-10-09T19:14:49.908Z,102010.16
2022-10-09T19:17:16.435Z,102004.56
2022-10-09T19:19:42.996Z,102016.06
2022-10-09T19:22:14.105Z,102009.47
2022-10-09T19:24:42.047Z,102007.44
2022-10-09T19:27:08.832Z,102003.53
2022-10-09T19:29:35.715Z,102008.97
2022-10-09T19:32:02.291Z,101998.13
2022-10-09T19:34:30.568Z,102005.41
2022-10-09T19:36:57.136Z,102000.31
2022-10-09T19:39:23.722Z,102000.47
2022-10-09T19:41:51.119Z,102005.03
2022-10-09T19:44:17.980Z,101999.97
2022-10-09T19:46:45.228Z,101993.19
2022-10-09T19:49:12.122Z,101985.41
2022-10-09T19:51:38.673Z,101985.41
2022-10-09T19:54:07.458Z,101983.38
2022-10-09T19:56:35.336Z,101980.84
2022-10-09T19:59:04.364Z,101980.66
2022-10-09T20:01:35.098Z,101977.13
2022-10-09T20:04:04.881Z,101977.97
2022-10-09T20:06:31.574Z,101983.19
2022-10-09T20:08:58.394Z,101980.66
2022-10-09T20:11:26.593Z,101974.56
2022-10-09T20:13:55.990Z,101977.13
2022-10-09T20:16:24.171Z,101968.31
2022-10-09T20:18:50.808Z,101980.84
2022-10-09T20:21:18.141Z,101970.19
2022-10-09T20:23:44.838Z,101974.22
2022-10-09T20:26:17.323Z,101974.41
2022-10-09T20:28:44.224Z,101969.00
2022-10-09T20:31:14.781Z,101965.59
2022-10-09T20:33:42.349Z,101963.91
2022-10-09T20:36:17.459Z,101966.97
2022-10-09T20:38:44.003Z,101967.63
2022-10-09T20:41:10.575Z,101962.22
2022-10-09T20:43:37.811Z,101955.13
2022-10-09T20:46:09.979Z,101956.81
2022-10-09T20:48:36.918Z,101953.25
2022-10-09T20:51:03.668Z,101949.03
2022-10-09T20:53:30.454Z,101949.69
2022-10-09T20:56:06.030Z,101951.56
2022-10-09T20:58:33.463Z,101954.59
2022-10-09T21:01:00.183Z,101943.63
2022-10-09T21:03:26.779Z,101951.88
2022-10-09T21:05:53.343Z,101943.91
2022-10-09T21:08:19.954Z,101942.91
2022-10-09T21:10:48.715Z,101940.53
2022-10-09T21:13:15.687Z,101935.13
2022-10-09T21:15:44.445Z,101932.41
2022-10-09T21:18:11.829Z,101933.44
2022-10-09T21:20:40.323Z,101941.38
2022-10-09T21:23:07.459Z,101941.22
2022-10-09T21:25:34.377Z,101933.44
2022-10-09T21:28:01.715Z,101935.63
2022-10-09T21:30:28.761Z,101932.91
2022-10-09T21:32:56.144Z,101929.19
2022-10-09T21:35:23.486Z,101939.16
2022-10-09T21:37:50.684Z,101930.38
2022-10-09T21:40:18.374Z,101932.38
2022-10-09T21:42:44.952Z,101932.06
2022-10-09T21:45:12.950Z,101937.78
2022-10-09T21:47:39.515Z,101933.25
2022-10-09T21:50:06.672Z,101934.22
2022-10-09T21:52:33.218Z,101926.97
2022-10-09T21:54:59.743Z,101926.97
2022-10-09T21:57:26.271Z,101929.53
2022-10-09T21:59:52.808Z,101926.66
2022-10-09T22:02:19.351Z,101921.53
2022-10-09T22:04:45.882Z,101917.13
2022-10-09T22:07:12.404Z,101909.19
2022-10-09T22:09:38.930Z,101904.13
2022-10-09T22:12:05.504Z,101899.91
2022-10-09T22:14:32.051Z,101898.72
2022-10-09T22:16:58.570Z,101896.84
2022-10-09T22:19:25.093Z,101890.09
2022-10-09T22:21:51.661Z,101881.78
2022-10-09T22:24:18.218Z,101878.06
2022-10-09T22:26:44.763Z,101880.09
2022-10-09T22:29:11.307Z,101880.78
2022-10-09T22:31:38.084Z,101882.63
2022-10-09T22:34:04.748Z,101882.47
2022-10-09T22:36:33.872Z,101881.63
2022-10-09T22:39:03.615Z,101882.13
2022-10-09T22:41:30.613Z,101874.84
2022-10-09T22:43:59.416Z,101876.38
2022-10-09T22:46:31.783Z,101876.38
2022-10-09T22:48:59.057Z,101870.09
2022-10-09T22:51:28.387Z,101874.00
2022-10-09T22:53:56.119Z,101873.69
2022-10-09T22:56:26.369Z,101870.97
2022-10-09T22:58:54.122Z,101861.13
2022-10-09T23:01:31.553Z,101866.53
2022-10-09T23:03:59.689Z,101855.88
2022-10-09T23:06:26.345Z,101862.66
2022-10-09T23:08:53.076Z,101860.97
2022-10-09T23:11:21.273Z,101861.66
2022-10-09T23:13:53.197Z,101858.09
2022-10-09T23:16:20.269Z,101857.25
2022-10-09T23:18:46.843Z,101858.09
2022-10-09T23:21:16.410Z,101846.25
2022-10-09T23:23:44.638Z,101854.19
2022-10-09T23:26:14.214Z,101847.94
2022-10-09T23:28:41.181Z,101854.38
2022-10-09T23:31:13.425Z,101843.38
2022-10-09T23:33:41.911Z,101839.16
2022-10-09T23:36:11.236Z,101840.84
2022-10-09T23:38:38.598Z,101841.00
2022-10-09T23:41:08.011Z,101840.00
2022-10-09T23:43:37.230Z,101841.00
2022-10-09T23:46:06.857Z,101833.72
2022-10-09T23:48:34.591Z,101832.03
2022-10-09T23:51:01.373Z,101835.78
2022-10-09T23:53:28.417Z,101824.94
2022-10-09T23:55:55.222Z,101825.94
2022-10-09T23:58:22.164Z,101827.78
